sensor_id;sensor_type;location;lat;lon;timestamp;P1;durP1;ratioP1;P2;durP2;ratioP2
64674;SDS011;51090;51.512;11.332;2023-06-04T00:02:07;4.18;;;2.17;;
64674;SDS011;51090;51.512;11.332;2023-06-04T00:04:34;3.10;;;1.98;;
64674;SDS011;51090;51.512;11.332;2023-06-04T00:07:00;5.28;;;2.58;;
64674;SDS011;51090;51.512;11.332;2023-06-04T00:09:26;5.28;;;2.33;;
64674;SDS011;51090;51.512;11.332;2023-06-04T00:11:52;4.43;;;2.53;;
64674;SDS011;51090;51.512;11.332;2023-06-04T00:14:20;4.60;;;2.45;;
64674;SDS011;51090;51.512;11.332;2023-06-04T00:16:46;3.85;;;2.40;;
64674;SDS011;51090;51.512;11.332;2023-06-04T00:19:12;3.88;;;2.13;;
64674;SDS011;51090;51.512;11.332;2023-06-04T00:21:38;4.93;;;1.98;;
64674;SDS011;51090;51.512;11.332;2023-06-04T00:24:04;5.78;;;2.70;;
64674;SDS011;51090;51.512;11.332;2023-06-04T00:26:31;4.32;;;2.20;;
64674;SDS011;51090;51.512;11.332;2023-06-04T00:28:57;5.30;;;2.53;;
64674;SDS011;51090;51.512;11.332;2023-06-04T00:31:23;4.53;;;2.67;;
64674;SDS011;51090;51.512;11.332;2023-06-04T00:33:49;4.25;;;2.17;;
64674;SDS011;51090;51.512;11.332;2023-06-04T00:36:15;6.35;;;2.47;;
64674;SDS011;51090;51.512;11.332;2023-06-04T00:38:41;3.83;;;2.65;;
64674;SDS011;51090;51.512;11.332;2023-06-04T00:41:07;6.15;;;2.67;;
64674;SDS011;51090;51.512;11.332;2023-06-04T00:43:34;4.40;;;2.50;;
64674;SDS011;51090;51.512;11.332;2023-06-04T00:46:00;6.68;;;2.80;;
64674;SDS011;51090;51.512;11.332;2023-06-04T00:48:28;8.55;;;3.05;;
64674;SDS011;51090;51.512;11.332;2023-06-04T00:50:55;6.95;;;2.60;;
64674;SDS011;51090;51.512;11.332;2023-06-04T00:53:23;5.05;;;2.53;;
64674;SDS011;51090;51.512;11.332;2023-06-04T00:55:50;4.47;;;2.50;;
64674;SDS011;51090;51.512;11.332;2023-06-04T00:58:16;3.40;;;2.00;;
64674;SDS011;51090;51.512;11.332;2023-06-04T01:00:43;6.88;;;2.78;;
64674;SDS011;51090;51.512;11.332;2023-06-04T01:03:10;5.20;;;2.47;;
64674;SDS011;51090;51.512;11.332;2023-06-04T01:05:56;5.47;;;2.65;;
64674;SDS011;51090;51.512;11.332;2023-06-04T01:08:38;5.97;;;2.60;;
64674;SDS011;51090;51.512;11.332;2023-06-04T01:11:07;4.55;;;2.40;;
64674;SDS011;51090;51.512;11.332;2023-06-04T01:13:33;7.65;;;2.90;;
64674;SDS011;51090;51.512;11.332;2023-06-04T01:15:59;6.47;;;2.97;;
64674;SDS011;51090;51.512;11.332;2023-06-04T01:18:27;8.30;;;2.72;;
64674;SDS011;51090;51.512;11.332;2023-06-04T01:20:56;4.00;;;2.13;;
64674;SDS011;51090;51.512;11.332;2023-06-04T01:26:02;4.72;;;2.10;;
64674;SDS011;51090;51.512;11.332;2023-06-04T01:28:33;4.18;;;2.00;;
64674;SDS011;51090;51.512;11.332;2023-06-04T01:31:00;4.75;;;2.45;;
64674;SDS011;51090;51.512;11.332;2023-06-04T01:33:29;4.85;;;2.33;;
64674;SDS011;51090;51.512;11.332;2023-06-04T01:35:55;6.15;;;2.35;;
64674;SDS011;51090;51.512;11.332;2023-06-04T01:38:21;4.03;;;2.08;;
64674;SDS011;51090;51.512;11.332;2023-06-04T01:40:47;5.95;;;2.47;;
64674;SDS011;51090;51.512;11.332;2023-06-04T01:43:13;5.90;;;2.30;;
64674;SDS011;51090;51.512;11.332;2023-06-04T01:45:40;3.53;;;1.90;;
64674;SDS011;51090;51.512;11.332;2023-06-04T01:48:06;5.45;;;2.30;;
64674;SDS011;51090;51.512;11.332;2023-06-04T01:50:32;4.20;;;2.22;;
64674;SDS011;51090;51.512;11.332;2023-06-04T01:52:58;3.40;;;1.83;;
64674;SDS011;51090;51.512;11.332;2023-06-04T01:55:24;5.40;;;2.15;;
64674;SDS011;51090;51.512;11.332;2023-06-04T01:57:53;4.38;;;1.88;;
64674;SDS011;51090;51.512;11.332;2023-06-04T02:00:19;5.28;;;2.40;;
64674;SDS011;51090;51.512;11.332;2023-06-04T02:02:45;4.10;;;1.88;;
64674;SDS011;51090;51.512;11.332;2023-06-04T02:05:13;3.47;;;1.80;;
64674;SDS011;51090;51.512;11.332;2023-06-04T02:07:40;5.13;;;1.90;;
64674;SDS011;51090;51.512;11.332;2023-06-04T02:10:10;4.93;;;2.03;;
64674;SDS011;51090;51.512;11.332;2023-06-04T02:12:39;4.90;;;1.80;;
64674;SDS011;51090;51.512;11.332;2023-06-04T02:15:17;4.45;;;2.05;;
64674;SDS011;51090;51.512;11.332;2023-06-04T02:17:43;5.28;;;2.53;;
64674;SDS011;51090;51.512;11.332;2023-06-04T02:20:10;5.75;;;2.50;;
64674;SDS011;51090;51.512;11.332;2023-06-04T02:22:37;4.53;;;2.15;;
64674;SDS011;51090;51.512;11.332;2023-06-04T02:25:03;4.38;;;2.10;;
64674;SDS011;51090;51.512;11.332;2023-06-04T02:27:30;4.72;;;2.00;;
64674;SDS011;51090;51.512;11.332;2023-06-04T02:29:56;3.75;;;1.90;;
64674;SDS011;51090;51.512;11.332;2023-06-04T02:32:22;3.42;;;1.90;;
64674;SDS011;51090;51.512;11.332;2023-06-04T02:34:48;4.88;;;2.10;;
64674;SDS011;51090;51.512;11.332;2023-06-04T02:37:14;4.18;;;2.03;;
64674;SDS011;51090;51.512;11.332;2023-06-04T02:39:40;2.83;;;1.98;;
64674;SDS011;51090;51.512;11.332;2023-06-04T02:42:07;5.25;;;1.90;;
64674;SDS011;51090;51.512;11.332;2023-06-04T02:44:33;3.17;;;1.83;;
64674;SDS011;51090;51.512;11.332;2023-06-04T02:46:59;3.05;;;1.90;;
64674;SDS011;51090;51.512;11.332;2023-06-04T02:49:25;4.25;;;2.05;;
64674;SDS011;51090;51.512;11.332;2023-06-04T02:51:51;5.15;;;2.13;;
64674;SDS011;51090;51.512;11.332;2023-06-04T02:54:17;3.13;;;1.90;;
64674;SDS011;51090;51.512;11.332;2023-06-04T02:56:43;4.03;;;2.08;;
64674;SDS011;51090;51.512;11.332;2023-06-04T02:59:09;3.75;;;2.05;;
64674;SDS011;51090;51.512;11.332;2023-06-04T03:01:35;4.45;;;2.40;;
64674;SDS011;51090;51.512;11.332;2023-06-04T03:04:01;5.78;;;2.28;;
64674;SDS011;51090;51.512;11.332;2023-06-04T03:06:30;4.45;;;1.95;;
64674;SDS011;51090;51.512;11.332;2023-06-04T03:08:59;4.97;;;2.10;;
64674;SDS011;51090;51.512;11.332;2023-06-04T03:11:26;5.43;;;2.17;;
64674;SDS011;51090;51.512;11.332;2023-06-04T03:13:53;3.45;;;1.65;;
64674;SDS011;51090;51.512;11.332;2023-06-04T03:16:19;4.53;;;1.80;;
64674;SDS011;51090;51.512;11.332;2023-06-04T03:18:45;4.43;;;1.83;;
64674;SDS011;51090;51.512;11.332;2023-06-04T03:21:12;3.80;;;1.80;;
64674;SDS011;51090;51.512;11.332;2023-06-04T03:23:38;3.00;;;1.60;;
64674;SDS011;51090;51.512;11.332;2023-06-04T03:26:05;4.97;;;1.70;;
64674;SDS011;51090;51.512;11.332;2023-06-04T03:28:31;4.13;;;1.60;;
64674;SDS011;51090;51.512;11.332;2023-06-04T03:30:58;6.82;;;1.92;;
64674;SDS011;51090;51.512;11.332;2023-06-04T03:33:25;3.25;;;1.67;;
64674;SDS011;51090;51.512;11.332;2023-06-04T03:35:51;4.15;;;1.88;;
64674;SDS011;51090;51.512;11.332;2023-06-04T03:38:23;3.90;;;1.80;;
64674;SDS011;51090;51.512;11.332;2023-06-04T03:40:50;3.90;;;1.83;;
64674;SDS011;51090;51.512;11.332;2023-06-04T03:43:18;2.63;;;1.60;;
64674;SDS011;51090;51.512;11.332;2023-06-04T03:45:44;3.85;;;1.63;;
64674;SDS011;51090;51.512;11.332;2023-06-04T03:48:10;2.22;;;1.55;;
64674;SDS011;51090;51.512;11.332;2023-06-04T03:50:37;3.58;;;1.73;;
64674;SDS011;51090;51.512;11.332;2023-06-04T03:53:03;3.92;;;1.38;;
64674;SDS011;51090;51.512;11.332;2023-06-04T03:55:32;3.65;;;1.95;;
64674;SDS011;51090;51.512;11.332;2023-06-04T03:57:58;2.53;;;1.42;;
64674;SDS011;51090;51.512;11.332;2023-06-04T04:00:24;3.95;;;1.60;;
64674;SDS011;51090;51.512;11.332;2023-06-04T04:02:51;4.28;;;1.73;;
64674;SDS011;51090;51.512;11.332;2023-06-04T04:05:17;4.35;;;1.58;;
64674;SDS011;51090;51.512;11.332;2023-06-04T04:07:43;4.00;;;1.60;;
64674;SDS011;51090;51.512;11.332;2023-06-04T04:10:09;4.82;;;1.65;;
64674;SDS011;51090;51.512;11.332;2023-06-04T04:12:36;3.70;;;1.65;;
64674;SDS011;51090;51.512;11.332;2023-06-04T04:15:02;4.82;;;1.48;;
64674;SDS011;51090;51.512;11.332;2023-06-04T04:17:29;3.53;;;1.33;;
64674;SDS011;51090;51.512;11.332;2023-06-04T04:19:55;3.78;;;1.88;;
64674;SDS011;51090;51.512;11.332;2023-06-04T04:22:21;2.58;;;1.33;;
64674;SDS011;51090;51.512;11.332;2023-06-04T04:24:47;2.70;;;1.38;;
64674;SDS011;51090;51.512;11.332;2023-06-04T04:27:13;3.88;;;1.30;;
64674;SDS011;51090;51.512;11.332;2023-06-04T04:29:40;4.13;;;1.50;;
64674;SDS011;51090;51.512;11.332;2023-06-04T04:32:07;4.03;;;1.50;;
64674;SDS011;51090;51.512;11.332;2023-06-04T04:34:37;3.83;;;1.50;;
64674;SDS011;51090;51.512;11.332;2023-06-04T04:37:07;3.70;;;1.42;;
64674;SDS011;51090;51.512;11.332;2023-06-04T04:39:34;2.78;;;1.25;;
64674;SDS011;51090;51.512;11.332;2023-06-04T04:42:01;3.33;;;1.40;;
64674;SDS011;51090;51.512;11.332;2023-06-04T04:44:28;3.80;;;1.58;;
64674;SDS011;51090;51.512;11.332;2023-06-04T04:46:54;3.25;;;1.50;;
64674;SDS011;51090;51.512;11.332;2023-06-04T04:49:20;2.53;;;1.35;;
64674;SDS011;51090;51.512;11.332;2023-06-04T04:51:46;2.38;;;1.40;;
64674;SDS011;51090;51.512;11.332;2023-06-04T04:54:13;3.00;;;1.50;;
64674;SDS011;51090;51.512;11.332;2023-06-04T04:56:39;3.20;;;1.60;;
64674;SDS011;51090;51.512;11.332;2023-06-04T04:59:05;7.13;;;1.77;;
64674;SDS011;51090;51.512;11.332;2023-06-04T05:49:35;2.17;;;1.20;;
64674;SDS011;51090;51.512;11.332;2023-06-04T05:52:01;3.13;;;1.33;;
64674;SDS011;51090;51.512;11.332;2023-06-04T05:54:28;2.67;;;1.17;;
64674;SDS011;51090;51.512;11.332;2023-06-04T05:56:55;4.15;;;1.20;;
64674;SDS011;51090;51.512;11.332;2023-06-04T05:59:21;7.15;;;1.58;;
64674;SDS011;51090;51.512;11.332;2023-06-04T06:01:47;2.40;;;1.05;;
64674;SDS011;51090;51.512;11.332;2023-06-04T06:04:14;6.15;;;1.20;;
64674;SDS011;51090;51.512;11.332;2023-06-04T06:06:40;4.00;;;1.23;;
64674;SDS011;51090;51.512;11.332;2023-06-04T06:09:09;4.18;;;1.00;;
64674;SDS011;51090;51.512;11.332;2023-06-04T06:11:35;3.63;;;1.20;;
64674;SDS011;51090;51.512;11.332;2023-06-04T06:14:01;1.85;;;0.85;;
64674;SDS011;51090;51.512;11.332;2023-06-04T06:16:27;2.88;;;0.88;;
64674;SDS011;51090;51.512;11.332;2023-06-04T06:18:53;2.03;;;0.80;;
64674;SDS011;51090;51.512;11.332;2023-06-04T06:21:19;6.68;;;1.08;;
64674;SDS011;51090;51.512;11.332;2023-06-04T06:23:45;1.98;;;0.90;;
64674;SDS011;51090;51.512;11.332;2023-06-04T06:26:11;1.80;;;0.82;;
64674;SDS011;51090;51.512;11.332;2023-06-04T06:28:37;3.63;;;0.90;;
64674;SDS011;51090;51.512;11.332;2023-06-04T06:31:04;2.00;;;0.90;;
64674;SDS011;51090;51.512;11.332;2023-06-04T06:33:30;2.50;;;0.80;;
64674;SDS011;51090;51.512;11.332;2023-06-04T06:35:56;1.10;;;0.60;;
64674;SDS011;51090;51.512;11.332;2023-06-04T06:38:25;1.60;;;0.90;;
64674;SDS011;51090;51.512;11.332;2023-06-04T06:40:51;3.63;;;1.15;;
64674;SDS011;51090;51.512;11.332;2023-06-04T06:43:17;1.05;;;0.70;;
64674;SDS011;51090;51.512;11.332;2023-06-04T06:45:43;2.55;;;0.80;;
64674;SDS011;51090;51.512;11.332;2023-06-04T06:48:09;1.95;;;0.70;;
64674;SDS011;51090;51.512;11.332;2023-06-04T06:50:35;1.63;;;0.60;;
64674;SDS011;51090;51.512;11.332;2023-06-04T06:53:03;1.52;;;0.80;;
64674;SDS011;51090;51.512;11.332;2023-06-04T06:55:29;3.53;;;0.98;;
64674;SDS011;51090;51.512;11.332;2023-06-04T06:57:55;1.98;;;0.93;;
64674;SDS011;51090;51.512;11.332;2023-06-04T07:00:20;2.17;;;0.77;;
64674;SDS011;51090;51.512;11.332;2023-06-04T07:02:46;1.25;;;0.50;;
64674;SDS011;51090;51.512;11.332;2023-06-04T07:05:13;3.13;;;0.75;;
64674;SDS011;51090;51.512;11.332;2023-06-04T07:07:40;2.90;;;0.50;;
64674;SDS011;51090;51.512;11.332;2023-06-04T07:10:06;2.28;;;0.73;;
64674;SDS011;51090;51.512;11.332;2023-06-04T07:12:34;2.30;;;0.90;;
64674;SDS011;51090;51.512;11.332;2023-06-04T07:15:00;0.85;;;0.55;;
64674;SDS011;51090;51.512;11.332;2023-06-04T07:17:26;2.22;;;0.60;;
64674;SDS011;51090;51.512;11.332;2023-06-04T07:19:51;1.38;;;0.60;;
64674;SDS011;51090;51.512;11.332;2023-06-04T07:22:17;1.95;;;0.50;;
64674;SDS011;51090;51.512;11.332;2023-06-04T07:24:43;1.52;;;0.60;;
64674;SDS011;51090;51.512;11.332;2023-06-04T07:27:12;3.97;;;0.70;;
64674;SDS011;51090;51.512;11.332;2023-06-04T07:29:38;3.22;;;0.77;;
64674;SDS011;51090;51.512;11.332;2023-06-04T07:32:05;2.97;;;0.60;;
64674;SDS011;51090;51.512;11.332;2023-06-04T07:34:31;1.15;;;0.63;;
64674;SDS011;51090;51.512;11.332;2023-06-04T07:36:57;1.95;;;0.80;;
64674;SDS011;51090;51.512;11.332;2023-06-04T07:39:23;3.38;;;0.73;;
64674;SDS011;51090;51.512;11.332;2023-06-04T07:41:49;1.50;;;0.70;;
64674;SDS011;51090;51.512;11.332;2023-06-04T07:44:14;2.05;;;0.70;;
64674;SDS011;51090;51.512;11.332;2023-06-04T07:46:40;2.25;;;0.60;;
64674;SDS011;51090;51.512;11.332;2023-06-04T07:49:06;1.60;;;0.82;;
64674;SDS011;51090;51.512;11.332;2023-06-04T07:51:33;1.08;;;0.60;;
64674;SDS011;51090;51.512;11.332;2023-06-04T07:53:59;2.03;;;0.73;;
64674;SDS011;51090;51.512;11.332;2023-06-04T07:56:25;1.50;;;0.68;;
64674;SDS011;51090;51.512;11.332;2023-06-04T07:58:51;1.73;;;0.50;;
64674;SDS011;51090;51.512;11.332;2023-06-04T08:01:17;2.70;;;1.13;;
64674;SDS011;51090;51.512;11.332;2023-06-04T08:03:43;1.67;;;0.77;;
64674;SDS011;51090;51.512;11.332;2023-06-04T08:06:09;1.27;;;0.65;;
64674;SDS011;51090;51.512;11.332;2023-06-04T08:08:35;1.58;;;0.70;;
64674;SDS011;51090;51.512;11.332;2023-06-04T08:11:01;4.82;;;0.80;;
64674;SDS011;51090;51.512;11.332;2023-06-04T08:13:27;1.35;;;0.70;;
64674;SDS011;51090;51.512;11.332;2023-06-04T08:15:53;2.22;;;1.20;;
64674;SDS011;51090;51.512;11.332;2023-06-04T08:18:19;2.55;;;0.70;;
64674;SDS011;51090;51.512;11.332;2023-06-04T08:20:45;1.13;;;0.60;;
64674;SDS011;51090;51.512;11.332;2023-06-04T08:23:10;1.30;;;0.40;;
64674;SDS011;51090;51.512;11.332;2023-06-04T08:25:36;2.88;;;0.80;;
64674;SDS011;51090;51.512;11.332;2023-06-04T08:28:02;3.10;;;1.20;;
64674;SDS011;51090;51.512;11.332;2023-06-04T08:30:28;1.45;;;0.70;;
64674;SDS011;51090;51.512;11.332;2023-06-04T08:32:54;2.15;;;0.90;;
64674;SDS011;51090;51.512;11.332;2023-06-04T08:35:20;1.77;;;0.60;;
64674;SDS011;51090;51.512;11.332;2023-06-04T08:37:46;0.68;;;0.47;;
64674;SDS011;51090;51.512;11.332;2023-06-04T08:40:11;1.45;;;0.73;;
64674;SDS011;51090;51.512;11.332;2023-06-04T08:42:38;4.32;;;1.02;;
64674;SDS011;51090;51.512;11.332;2023-06-04T08:45:10;2.08;;;0.80;;
64674;SDS011;51090;51.512;11.332;2023-06-04T08:47:44;2.13;;;1.00;;
64674;SDS011;51090;51.512;11.332;2023-06-04T08:50:14;1.55;;;0.60;;
64674;SDS011;51090;51.512;11.332;2023-06-04T08:52:43;1.70;;;0.63;;
64674;SDS011;51090;51.512;11.332;2023-06-04T08:55:10;3.53;;;0.70;;
64674;SDS011;51090;51.512;11.332;2023-06-04T08:57:39;1.83;;;0.70;;
64674;SDS011;51090;51.512;11.332;2023-06-04T09:00:05;2.47;;;0.70;;
64674;SDS011;51090;51.512;11.332;2023-06-04T09:02:34;1.55;;;0.65;;
64674;SDS011;51090;51.512;11.332;2023-06-04T09:05:04;1.50;;;0.60;;
64674;SDS011;51090;51.512;11.332;2023-06-04T09:07:38;3.45;;;0.73;;
64674;SDS011;51090;51.512;11.332;2023-06-04T09:10:06;1.23;;;0.55;;
64674;SDS011;51090;51.512;11.332;2023-06-04T09:12:35;1.02;;;0.52;;
64674;SDS011;51090;51.512;11.332;2023-06-04T09:15:03;4.43;;;0.80;;
64674;SDS011;51090;51.512;11.332;2023-06-04T09:17:29;1.13;;;0.50;;
64674;SDS011;51090;51.512;11.332;2023-06-04T09:19:55;1.17;;;0.60;;
64674;SDS011;51090;51.512;11.332;2023-06-04T09:22:31;3.78;;;0.70;;
64674;SDS011;51090;51.512;11.332;2023-06-04T09:25:02;1.50;;;0.60;;
64674;SDS011;51090;51.512;11.332;2023-06-04T09:27:39;3.30;;;0.95;;
64674;SDS011;51090;51.512;11.332;2023-06-04T09:30:05;1.92;;;0.80;;
64674;SDS011;51090;51.512;11.332;2023-06-04T09:32:34;3.10;;;0.80;;
64674;SDS011;51090;51.512;11.332;2023-06-04T09:35:18;1.80;;;0.77;;
64674;SDS011;51090;51.512;11.332;2023-06-04T09:37:55;3.25;;;1.00;;
64674;SDS011;51090;51.512;11.332;2023-06-04T09:40:21;3.70;;;0.98;;
64674;SDS011;51090;51.512;11.332;2023-06-04T09:42:48;3.95;;;0.80;;
64674;SDS011;51090;51.512;11.332;2023-06-04T09:45:53;2.97;;;0.75;;
64674;SDS011;51090;51.512;11.332;2023-06-04T09:48:18;1.63;;;0.70;;
64674;SDS011;51090;51.512;11.332;2023-06-04T09:50:46;2.10;;;0.70;;
64674;SDS011;51090;51.512;11.332;2023-06-04T09:53:15;2.10;;;1.00;;
64674;SDS011;51090;51.512;11.332;2023-06-04T09:55:55;0.98;;;0.70;;
64674;SDS011;51090;51.512;11.332;2023-06-04T09:58:25;2.10;;;0.80;;
64674;SDS011;51090;51.512;11.332;2023-06-04T10:00:53;1.73;;;0.73;;
64674;SDS011;51090;51.512;11.332;2023-06-04T10:03:20;2.72;;;0.73;;
64674;SDS011;51090;51.512;11.332;2023-06-04T10:05:53;3.67;;;1.17;;
64674;SDS011;51090;51.512;11.332;2023-06-04T10:08:23;6.65;;;2.05;;
64674;SDS011;51090;51.512;11.332;2023-06-04T10:10:50;4.35;;;1.83;;
64674;SDS011;51090;51.512;11.332;2023-06-04T10:13:20;2.40;;;1.20;;
64674;SDS011;51090;51.512;11.332;2023-06-04T10:15:48;1.83;;;1.00;;
64674;SDS011;51090;51.512;11.332;2023-06-04T10:18:15;1.67;;;0.90;;
64674;SDS011;51090;51.512;11.332;2023-06-04T10:20:41;2.30;;;0.88;;
64674;SDS011;51090;51.512;11.332;2023-06-04T10:23:07;1.98;;;0.82;;
64674;SDS011;51090;51.512;11.332;2023-06-04T10:25:34;2.42;;;0.88;;
64674;SDS011;51090;51.512;11.332;2023-06-04T10:28:03;1.27;;;0.80;;
64674;SDS011;51090;51.512;11.332;2023-06-04T10:30:30;3.42;;;0.80;;
64674;SDS011;51090;51.512;11.332;2023-06-04T10:32:56;3.42;;;0.70;;
64674;SDS011;51090;51.512;11.332;2023-06-04T10:35:29;2.95;;;0.80;;
64674;SDS011;51090;51.512;11.332;2023-06-04T10:38:09;2.47;;;0.70;;
64674;SDS011;51090;51.512;11.332;2023-06-04T10:40:36;3.75;;;0.90;;
64674;SDS011;51090;51.512;11.332;2023-06-04T10:43:10;1.88;;;0.65;;
64674;SDS011;51090;51.512;11.332;2023-06-04T10:45:38;1.52;;;0.60;;
64674;SDS011;51090;51.512;11.332;2023-06-04T10:48:07;1.80;;;0.70;;
64674;SDS011;51090;51.512;11.332;2023-06-04T10:50:47;2.00;;;0.80;;
64674;SDS011;51090;51.512;11.332;2023-06-04T10:53:15;2.78;;;0.68;;
64674;SDS011;51090;51.512;11.332;2023-06-04T10:55:43;3.03;;;0.80;;
64674;SDS011;51090;51.512;11.332;2023-06-04T10:58:10;1.02;;;0.70;;
64674;SDS011;51090;51.512;11.332;2023-06-04T11:00:40;1.75;;;0.75;;
64674;SDS011;51090;51.512;11.332;2023-06-04T11:03:14;3.40;;;0.88;;
64674;SDS011;51090;51.512;11.332;2023-06-04T11:05:42;3.65;;;0.80;;
64674;SDS011;51090;51.512;11.332;2023-06-04T11:08:12;2.45;;;0.70;;
64674;SDS011;51090;51.512;11.332;2023-06-04T11:10:42;1.30;;;0.50;;
64674;SDS011;51090;51.512;11.332;2023-06-04T11:13:10;1.73;;;0.95;;
64674;SDS011;51090;51.512;11.332;2023-06-04T11:15:42;1.73;;;0.82;;
64674;SDS011;51090;51.512;11.332;2023-06-04T11:18:13;1.13;;;0.75;;
64674;SDS011;51090;51.512;11.332;2023-06-04T11:20:41;1.05;;;0.70;;
64674;SDS011;51090;51.512;11.332;2023-06-04T11:23:11;1.42;;;0.63;;
64674;SDS011;51090;51.512;11.332;2023-06-04T11:25:38;1.40;;;0.63;;
64674;SDS011;51090;51.512;11.332;2023-06-04T11:28:04;2.08;;;0.60;;
64674;SDS011;51090;51.512;11.332;2023-06-04T11:30:30;2.30;;;0.73;;
64674;SDS011;51090;51.512;11.332;2023-06-04T11:33:03;1.58;;;0.68;;
64674;SDS011;51090;51.512;11.332;2023-06-04T11:35:30;2.65;;;0.70;;
64674;SDS011;51090;51.512;11.332;2023-06-04T11:38:04;2.22;;;0.70;;
64674;SDS011;51090;51.512;11.332;2023-06-04T11:40:30;1.27;;;0.70;;
64674;SDS011;51090;51.512;11.332;2023-06-04T11:42:56;2.78;;;0.90;;
64674;SDS011;51090;51.512;11.332;2023-06-04T11:45:22;3.47;;;0.75;;
64674;SDS011;51090;51.512;11.332;2023-06-04T11:47:52;1.42;;;0.63;;
64674;SDS011;51090;51.512;11.332;2023-06-04T11:50:20;1.38;;;0.75;;
64674;SDS011;51090;51.512;11.332;2023-06-04T11:52:48;2.70;;;1.13;;
64674;SDS011;51090;51.512;11.332;2023-06-04T11:55:14;1.20;;;0.60;;
64674;SDS011;51090;51.512;11.332;2023-06-04T11:57:45;1.58;;;0.80;;
64674;SDS011;51090;51.512;11.332;2023-06-04T12:00:13;1.65;;;0.90;;
64674;SDS011;51090;51.512;11.332;2023-06-04T12:02:50;1.70;;;0.77;;
64674;SDS011;51090;51.512;11.332;2023-06-04T12:05:28;6.10;;;0.70;;
64674;SDS011;51090;51.512;11.332;2023-06-04T12:08:10;2.70;;;0.90;;
64674;SDS011;51090;51.512;11.332;2023-06-04T12:10:37;1.38;;;0.68;;
64674;SDS011;51090;51.512;11.332;2023-06-04T12:13:07;2.35;;;0.80;;
64674;SDS011;51090;51.512;11.332;2023-06-04T12:15:34;1.75;;;0.73;;
64674;SDS011;51090;51.512;11.332;2023-06-04T12:18:00;2.63;;;0.80;;
64674;SDS011;51090;51.512;11.332;2023-06-04T12:23:00;4.20;;;0.73;;
64674;SDS011;51090;51.512;11.332;2023-06-04T12:25:28;2.80;;;0.60;;
64674;SDS011;51090;51.512;11.332;2023-06-04T12:27:55;3.25;;;0.65;;
64674;SDS011;51090;51.512;11.332;2023-06-04T12:30:21;1.52;;;0.75;;
64674;SDS011;51090;51.512;11.332;2023-06-04T12:32:47;2.00;;;0.65;;
64674;SDS011;51090;51.512;11.332;2023-06-04T12:35:14;2.13;;;0.80;;
64674;SDS011;51090;51.512;11.332;2023-06-04T12:37:41;1.75;;;0.60;;
64674;SDS011;51090;51.512;11.332;2023-06-04T12:40:07;3.20;;;1.15;;
64674;SDS011;51090;51.512;11.332;2023-06-04T12:42:34;3.20;;;0.63;;
64674;SDS011;51090;51.512;11.332;2023-06-04T12:44:59;1.27;;;0.60;;
64674;SDS011;51090;51.512;11.332;2023-06-04T12:47:25;2.58;;;0.77;;
64674;SDS011;51090;51.512;11.332;2023-06-04T12:49:51;1.38;;;0.70;;
64674;SDS011;51090;51.512;11.332;2023-06-04T12:52:17;7.43;;;0.95;;
64674;SDS011;51090;51.512;11.332;2023-06-04T12:54:43;2.25;;;0.75;;
64674;SDS011;51090;51.512;11.332;2023-06-04T12:57:09;6.53;;;0.80;;
64674;SDS011;51090;51.512;11.332;2023-06-04T12:59:35;0.88;;;0.55;;
64674;SDS011;51090;51.512;11.332;2023-06-04T13:02:00;1.92;;;0.90;;
64674;SDS011;51090;51.512;11.332;2023-06-04T13:04:26;4.72;;;0.65;;
64674;SDS011;51090;51.512;11.332;2023-06-04T13:06:52;2.67;;;0.70;;
64674;SDS011;51090;51.512;11.332;2023-06-04T13:09:23;2.63;;;0.77;;
64674;SDS011;51090;51.512;11.332;2023-06-04T13:11:50;19.52;;;1.83;;
64674;SDS011;51090;51.512;11.332;2023-06-04T13:14:16;6.68;;;1.45;;
64674;SDS011;51090;51.512;11.332;2023-06-04T13:16:42;1.02;;;0.55;;
64674;SDS011;51090;51.512;11.332;2023-06-04T13:19:08;2.20;;;0.55;;
64674;SDS011;51090;51.512;11.332;2023-06-04T13:21:34;2.17;;;0.77;;
64674;SDS011;51090;51.512;11.332;2023-06-04T13:24:01;3.60;;;0.63;;
64674;SDS011;51090;51.512;11.332;2023-06-04T13:26:27;2.40;;;0.70;;
64674;SDS011;51090;51.512;11.332;2023-06-04T13:28:52;1.30;;;0.70;;
64674;SDS011;51090;51.512;11.332;2023-06-04T13:31:18;3.30;;;0.70;;
64674;SDS011;51090;51.512;11.332;2023-06-04T13:33:44;1.60;;;0.80;;
64674;SDS011;51090;51.512;11.332;2023-06-04T13:36:09;0.90;;;0.70;;
64674;SDS011;51090;51.512;11.332;2023-06-04T13:38:35;2.13;;;0.80;;
64674;SDS011;51090;51.512;11.332;2023-06-04T13:41:01;2.95;;;0.90;;
64674;SDS011;51090;51.512;11.332;2023-06-04T13:43:27;1.67;;;0.80;;
64674;SDS011;51090;51.512;11.332;2023-06-04T13:45:53;4.47;;;0.80;;
64674;SDS011;51090;51.512;11.332;2023-06-04T13:48:18;1.95;;;0.90;;
64674;SDS011;51090;51.512;11.332;2023-06-04T13:50:45;7.00;;;1.00;;
64674;SDS011;51090;51.512;11.332;2023-06-04T13:53:11;3.10;;;0.80;;
64674;SDS011;51090;51.512;11.332;2023-06-04T13:55:39;1.10;;;0.60;;
64674;SDS011;51090;51.512;11.332;2023-06-04T13:58:05;2.15;;;0.57;;
64674;SDS011;51090;51.512;11.332;2023-06-04T14:00:31;3.30;;;0.95;;
64674;SDS011;51090;51.512;11.332;2023-06-04T14:02:58;2.83;;;0.70;;
64674;SDS011;51090;51.512;11.332;2023-06-04T14:05:24;1.70;;;0.65;;
64674;SDS011;51090;51.512;11.332;2023-06-04T14:07:53;2.63;;;0.73;;
64674;SDS011;51090;51.512;11.332;2023-06-04T14:10:19;1.45;;;0.77;;
64674;SDS011;51090;51.512;11.332;2023-06-04T14:12:45;1.02;;;0.70;;
64674;SDS011;51090;51.512;11.332;2023-06-04T14:15:10;1.77;;;0.90;;
64674;SDS011;51090;51.512;11.332;2023-06-04T14:17:39;1.35;;;0.63;;
64674;SDS011;51090;51.512;11.332;2023-06-04T14:20:05;1.65;;;0.80;;
64674;SDS011;51090;51.512;11.332;2023-06-04T14:22:41;1.42;;;0.85;;
64674;SDS011;51090;51.512;11.332;2023-06-04T14:25:07;2.60;;;0.70;;
64674;SDS011;51090;51.512;11.332;2023-06-04T14:27:34;1.15;;;0.63;;
64674;SDS011;51090;51.512;11.332;2023-06-04T14:30:01;2.53;;;0.60;;
64674;SDS011;51090;51.512;11.332;2023-06-04T14:32:30;1.73;;;0.70;;
64674;SDS011;51090;51.512;11.332;2023-06-04T14:34:58;2.03;;;0.85;;
64674;SDS011;51090;51.512;11.332;2023-06-04T14:37:24;2.15;;;0.70;;
64674;SDS011;51090;51.512;11.332;2023-06-04T14:39:50;3.00;;;0.80;;
64674;SDS011;51090;51.512;11.332;2023-06-04T14:42:16;3.72;;;1.35;;
64674;SDS011;51090;51.512;11.332;2023-06-04T14:44:43;1.40;;;0.80;;
64674;SDS011;51090;51.512;11.332;2023-06-04T14:47:11;2.25;;;1.17;;
64674;SDS011;51090;51.512;11.332;2023-06-04T14:49:36;3.78;;;1.20;;
64674;SDS011;51090;51.512;11.332;2023-06-04T14:52:02;4.53;;;1.00;;
64674;SDS011;51090;51.512;11.332;2023-06-04T14:54:28;1.30;;;0.90;;
64674;SDS011;51090;51.512;11.332;2023-06-04T14:56:54;1.55;;;0.68;;
64674;SDS011;51090;51.512;11.332;2023-06-04T14:59:20;1.50;;;0.70;;
64674;SDS011;51090;51.512;11.332;2023-06-04T15:01:46;1.95;;;0.90;;
64674;SDS011;51090;51.512;11.332;2023-06-04T15:04:12;2.00;;;0.70;;
64674;SDS011;51090;51.512;11.332;2023-06-04T15:06:38;2.67;;;0.80;;
64674;SDS011;51090;51.512;11.332;2023-06-04T15:09:04;1.35;;;0.75;;
64674;SDS011;51090;51.512;11.332;2023-06-04T15:11:30;1.90;;;0.70;;
64674;SDS011;51090;51.512;11.332;2023-06-04T15:13:56;4.22;;;0.98;;
64674;SDS011;51090;51.512;11.332;2023-06-04T15:16:21;3.17;;;0.65;;
64674;SDS011;51090;51.512;11.332;2023-06-04T15:18:48;4.18;;;0.82;;
64674;SDS011;51090;51.512;11.332;2023-06-04T15:21:14;6.03;;;1.40;;
64674;SDS011;51090;51.512;11.332;2023-06-04T15:23:40;3.00;;;1.48;;
64674;SDS011;51090;51.512;11.332;2023-06-04T15:26:06;2.72;;;1.17;;
64674;SDS011;51090;51.512;11.332;2023-06-04T15:28:32;2.30;;;1.05;;